Time;durP1;ratioP1;P1;durP2;ratioP2;P2;SDS_P1;SDS_P2;PMS_P1;PMS_P2;Temp;Humidity;BMP_temperature;BMP_pressure;BME280_temperature;BME280_humidity;BME280_pressure;Samples;Min_cycle;Max_cycle;Signal;HPM_P1;HPM_P2
2022/08/12 00:44:33;;;;;;;8.43;6.25;;;;;;;;;;1734982;82;21068;-79
2022/08/12 00:46:59;;;;;;;8.15;7.00;;;;;;;;;;1735442;80;21037;-79
2022/08/12 00:49:25;;;;;;;8.23;7.42;;;;;;;;;;1682151;84;21735;-80
2022/08/12 00:52:10;;;;;;;8.88;7.97;;;;;;;;;;1688308;84;21059;-80
2022/08/12 00:54:40;;;;;;;7.72;6.55;;;;;;;;;;1732987;82;21514;-79
2022/08/12 00:57:08;;;;;;;8.23;6.72;;;;;;;;;;1744208;82;21009;-79
2022/08/12 00:59:36;;;;;;;7.60;6.65;;;;;;;;;;1729829;82;21103;-79
2022/08/12 01:13:24;;;;;;;8.08;7.10;;;;;;;;;;1630061;88;21072;-78
2022/08/12 01:15:51;;;;;;;8.58;7.20;;;;;;;;;;1630614;88;21056;-78
2022/08/12 01:18:21;;;;;;;7.65;6.85;;;;;;;;;;1631182;88;21032;-78
2022/08/12 01:20:49;;;;;;;8.78;7.70;;;;;;;;;;1631014;88;21075;-77
2022/08/12 01:23:23;;;;;;;10.03;7.10;;;;;;;;;;1631101;88;21594;-77
2022/08/12 01:25:49;;;;;;;8.08;6.70;;;;;;;;;;1630812;88;21064;-77
2022/08/12 01:28:15;;;;;;;7.25;6.55;;;;;;;;;;1630847;88;21096;-78
2022/08/12 01:30:41;;;;;;;8.03;7.08;;;;;;;;;;1630967;88;21048;-78
2022/08/12 01:33:12;;;;;;;8.43;7.03;;;;;;;;;;1631090;88;21028;-77
2022/08/12 01:35:37;;;;;;;8.35;6.45;;;;;;;;;;1662825;86;21064;-77
2022/08/12 01:38:04;;;;;;;7.53;6.70;;;;;;;;;;1662564;86;21108;-78
2022/08/12 01:40:32;;;;;;;7.62;6.92;;;;;;;;;;1663288;86;21112;-78
2022/08/12 01:43:06;;;;;;;7.55;6.33;;;;;;;;;;1663176;86;21070;-77
2022/08/12 01:45:33;;;;;;;8.83;6.62;;;;;;;;;;1663148;86;21527;-77
2022/08/12 01:48:01;;;;;;;7.78;7.03;;;;;;;;;;1663169;86;21505;-77
2022/08/12 01:50:45;;;;;;;8.48;7.67;;;;;;;;;;1663307;86;21072;-77
2022/08/12 01:53:12;;;;;;;7.55;6.42;;;;;;;;;;1663214;86;21576;-77
2022/08/12 01:55:39;;;;;;;9.18;6.42;;;;;;;;;;1663122;86;21073;-77
2022/08/12 01:58:16;;;;;;;7.15;6.17;;;;;;;;;;1662871;86;21057;-78
2022/08/12 02:00:47;;;;;;;7.58;6.62;;;;;;;;;;1662329;86;21037;-77
2022/08/12 02:03:13;;;;;;;8.93;7.47;;;;;;;;;;1656520;86;21089;-77
2022/08/12 02:11:33;;;;;;;8.80;6.55;;;;;;;;;;1710122;83;21049;-77
2022/08/12 02:14:13;;;;;;;7.72;6.92;;;;;;;;;;1669657;84;21715;-76
2022/08/12 02:17:00;;;;;;;8.08;7.28;;;;;;;;;;1671049;84;21069;-77
2022/08/12 02:19:45;;;;;;;7.85;7.03;;;;;;;;;;1666318;84;21040;-76
2022/08/12 02:22:14;;;;;;;7.80;7.00;;;;;;;;;;1670358;84;21041;-77
2022/08/12 02:24:41;;;;;;;9.35;6.47;;;;;;;;;;1715104;83;21556;-77
2022/08/12 02:27:07;;;;;;;8.10;7.15;;;;;;;;;;1726544;82;21557;-77
2022/08/12 02:29:34;;;;;;;11.28;7.75;;;;;;;;;;1667974;84;21531;-77
2022/08/12 02:32:00;;;;;;;9.38;6.92;;;;;;;;;;1675458;84;21086;-77
2022/08/12 02:34:27;;;;;;;7.58;6.40;;;;;;;;;;1671689;86;21073;-77
2022/08/12 02:36:57;;;;;;;8.08;6.00;;;;;;;;;;1670016;84;21005;-77
2022/08/12 02:39:21;;;;;;;7.05;6.35;;;;;;;;;;1667774;84;21124;-77
2022/08/12 02:41:47;;;;;;;8.08;7.28;;;;;;;;;;1665762;84;21045;-77
2022/08/12 02:44:15;;;;;;;8.53;6.53;;;;;;;;;;1666734;85;21049;-77
2022/08/12 02:46:42;;;;;;;7.65;6.83;;;;;;;;;;1665704;84;21068;-77
2022/08/12 02:49:09;;;;;;;7.17;6.40;;;;;;;;;;1666614;85;21624;-77
2022/08/12 02:51:37;;;;;;;8.63;7.03;;;;;;;;;;1666344;84;22176;-78
2022/08/12 02:54:03;;;;;;;9.23;7.20;;;;;;;;;;1665761;85;21074;-77
2022/08/12 02:56:29;;;;;;;9.55;7.65;;;;;;;;;;1666285;84;21076;-77
2022/08/12 02:58:56;;;;;;;8.88;6.92;;;;;;;;;;1666440;84;21608;-78
2022/08/12 03:01:31;;;;;;;11.75;7.35;;;;;;;;;;1647569;86;21067;-78
2022/08/12 03:03:55;;;;;;;8.20;7.40;;;;;;;;;;1646099;86;21136;-78
2022/08/12 03:06:21;;;;;;;9.58;7.40;;;;;;;;;;1668946;84;21133;-78
2022/08/12 03:08:48;;;;;;;8.50;7.70;;;;;;;;;;1674900;84;21045;-77
2022/08/12 03:11:27;;;;;;;8.58;7.53;;;;;;;;;;1690018;84;21493;-77
2022/08/12 03:13:57;;;;;;;8.90;6.83;;;;;;;;;;1677399;84;21134;-77
2022/08/12 03:16:24;;;;;;;8.48;6.85;;;;;;;;;;1677514;84;21032;-78
2022/08/12 03:18:50;;;;;;;10.63;7.22;;;;;;;;;;1680898;84;21055;-77
2022/08/12 03:21:17;;;;;;;8.70;7.90;;;;;;;;;;1677238;84;21104;-78
2022/08/12 03:23:43;;;;;;;7.08;6.37;;;;;;;;;;1688746;84;21036;-77
2022/08/12 03:26:09;;;;;;;8.98;7.05;;;;;;;;;;1688984;84;21065;-76
2022/08/12 03:28:52;;;;;;;8.95;7.00;;;;;;;;;;1676461;85;20981;-77
2022/08/12 03:31:20;;;;;;;9.08;8.13;;;;;;;;;;1675434;84;21494;-78
2022/08/12 03:33:48;;;;;;;7.40;6.70;;;;;;;;;;1672186;85;21044;-78
2022/08/12 03:36:17;;;;;;;8.40;7.60;;;;;;;;;;1675020;85;21110;-78
2022/08/12 03:41:50;;;;;;;7.40;6.62;;;;;;;;;;1682936;84;21104;-65
2022/08/12 04:00:24;;;;;;;8.93;6.83;;;;;;;;;;1812646;78;21028;-63
2022/08/12 04:03:00;;;;;;;9.30;7.47;;;;;;;;;;1810355;78;21016;-64
2022/08/12 04:05:26;;;;;;;7.67;6.67;;;;;;;;;;1782745;79;21688;-65
2022/08/12 04:07:52;;;;;;;8.15;7.33;;;;;;;;;;1780929;80;21041;-65
2022/08/12 04:10:19;;;;;;;9.15;7.10;;;;;;;;;;1787499;79;21514;-65
2022/08/12 04:15:32;;;;;;;10.45;7.17;;;;;;;;;;1791751;80;21097;-64
2022/08/12 04:17:59;;;;;;;7.72;7.03;;;;;;;;;;1793642;79;21495;-64
2022/08/12 04:20:25;;;;;;;8.40;7.60;;;;;;;;;;1792061;79;21035;-64
2022/08/12 04:22:52;;;;;;;8.45;7.15;;;;;;;;;;1793551;80;22097;-64
2022/08/12 04:25:19;;;;;;;7.30;6.15;;;;;;;;;;1754626;80;21068;-64
2022/08/12 04:27:45;;;;;;;7.67;6.90;;;;;;;;;;1718687;83;21044;-64
2022/08/12 04:30:11;;;;;;;9.50;7.15;;;;;;;;;;1712384;82;22182;-64
2022/08/12 04:32:38;;;;;;;7.45;6.03;;;;;;;;;;1720855;82;21055;-64
2022/08/12 04:35:06;;;;;;;8.45;7.65;;;;;;;;;;1740835;81;21086;-64
2022/08/12 04:37:32;;;;;;;9.83;7.28;;;;;;;;;;1740957;81;21352;-66
2022/08/12 04:39:58;;;;;;;8.25;7.45;;;;;;;;;;1742944;81;21064;-66
2022/08/12 04:42:25;;;;;;;8.68;7.87;;;;;;;;;;1743601;81;21079;-66
2022/08/12 04:44:51;;;;;;;8.85;8.05;;;;;;;;;;1748902;81;21042;-64
2022/08/12 04:47:17;;;;;;;9.43;6.83;;;;;;;;;;1738189;82;21090;-64
2022/08/12 04:49:44;;;;;;;9.70;6.87;;;;;;;;;;1751326;82;21600;-65
2022/08/12 04:52:10;;;;;;;11.18;6.87;;;;;;;;;;1719987;83;21040;-65
2022/08/12 04:54:36;;;;;;;9.20;7.80;;;;;;;;;;1751693;82;21378;-64
2022/08/12 04:57:04;;;;;;;8.73;7.78;;;;;;;;;;1750463;82;21026;-65
2022/08/12 04:59:31;;;;;;;9.40;7.60;;;;;;;;;;1713325;82;21016;-65
2022/08/12 05:01:57;;;;;;;8.73;7.53;;;;;;;;;;1749661;80;21534;-65
2022/08/12 05:04:24;;;;;;;8.18;7.28;;;;;;;;;;1744998;81;21122;-65
2022/08/12 05:06:51;;;;;;;8.43;6.97;;;;;;;;;;1736084;81;21095;-65
2022/08/12 05:09:17;;;;;;;9.00;7.37;;;;;;;;;;1735316;80;21083;-63
2022/08/12 05:11:45;;;;;;;9.43;7.20;;;;;;;;;;1738013;80;21048;-63
2022/08/12 05:14:11;;;;;;;8.50;7.67;;;;;;;;;;1735167;80;21040;-63
2022/08/12 05:16:38;;;;;;;8.95;7.92;;;;;;;;;;1725164;82;22264;-62
2022/08/12 05:19:05;;;;;;;9.53;8.60;;;;;;;;;;1730671;82;21030;-61
2022/08/12 05:21:32;;;;;;;8.50;7.33;;;;;;;;;;1721529;83;21032;-60
2022/08/12 05:23:58;;;;;;;10.75;8.33;;;;;;;;;;1751296;82;21656;-61
2022/08/12 05:26:25;;;;;;;9.70;8.40;;;;;;;;;;1750196;82;21091;-61
2022/08/12 05:28:53;;;;;;;10.00;7.58;;;;;;;;;;1749384;81;21523;-61
2022/08/12 05:31:19;;;;;;;9.80;8.23;;;;;;;;;;1700636;83;21053;-61
2022/08/12 05:33:46;;;;;;;9.43;8.53;;;;;;;;;;1751850;81;21084;-61
2022/08/12 05:36:14;;;;;;;11.80;7.37;;;;;;;;;;1708222;83;21125;-61
2022/08/12 05:38:55;;;;;;;8.08;7.33;;;;;;;;;;1707245;83;21557;-61
2022/08/12 05:41:23;;;;;;;8.03;7.22;;;;;;;;;;1731640;82;21054;-62
2022/08/12 05:43:50;;;;;;;9.83;8.05;;;;;;;;;;1730365;82;21042;-62
2022/08/12 05:46:17;;;;;;;9.68;8.75;;;;;;;;;;1730936;81;21529;-61
2022/08/12 05:48:43;;;;;;;10.10;8.10;;;;;;;;;;1727560;82;21008;-61
2022/08/12 05:51:10;;;;;;;11.50;7.58;;;;;;;;;;1723191;82;21995;-63
2022/08/12 05:53:37;;;;;;;11.60;8.28;;;;;;;;;;1704734;83;21064;-63
2022/08/12 05:56:04;;;;;;;11.40;9.10;;;;;;;;;;1729504;81;21021;-61
2022/08/12 05:58:31;;;;;;;11.43;7.87;;;;;;;;;;1728184;82;21049;-62
2022/08/12 06:00:58;;;;;;;8.45;7.55;;;;;;;;;;1730446;81;21614;-63
2022/08/12 06:03:24;;;;;;;10.08;8.95;;;;;;;;;;1729680;82;21112;-63
2022/08/12 06:05:51;;;;;;;10.78;8.15;;;;;;;;;;1726289;81;21063;-64
2022/08/12 06:08:17;;;;;;;11.55;7.92;;;;;;;;;;1707927;83;21043;-63
2022/08/12 06:10:46;;;;;;;9.65;8.20;;;;;;;;;;1706569;83;21037;-63
2022/08/12 06:13:13;;;;;;;10.58;8.40;;;;;;;;;;1732871;81;21005;-63
2022/08/12 06:15:40;;;;;;;14.28;8.98;;;;;;;;;;1726642;81;21096;-63
2022/08/12 06:18:07;;;;;;;10.72;7.55;;;;;;;;;;1732062;81;21533;-63
2022/08/12 06:20:33;;;;;;;10.08;8.75;;;;;;;;;;1730901;81;21024;-63
2022/08/12 06:23:00;;;;;;;11.48;8.05;;;;;;;;;;1732370;81;22158;-64
2022/08/12 06:25:30;;;;;;;8.83;7.90;;;;;;;;;;1727328;81;21100;-64
2022/08/12 06:27:55;;;;;;;17.60;9.68;;;;;;;;;;1727012;82;21061;-64
2022/08/12 06:30:22;;;;;;;18.10;8.30;;;;;;;;;;1727704;82;22249;-64
2022/08/12 06:32:51;;;;;;;11.20;8.70;;;;;;;;;;1724169;82;21009;-64
2022/08/12 06:35:17;;;;;;;12.35;9.65;;;;;;;;;;1727026;82;21030;-62
2022/08/12 06:37:44;;;;;;;13.95;9.55;;;;;;;;;;1728686;82;21031;-63
2022/08/12 06:40:12;;;;;;;10.80;9.20;;;;;;;;;;1729091;81;21037;-62
2022/08/12 06:42:47;;;;;;;9.85;8.38;;;;;;;;;;1733203;81;21560;-61
2022/08/12 06:45:14;;;;;;;10.78;9.68;;;;;;;;;;1725812;81;21598;-61
2022/08/12 06:47:42;;;;;;;11.38;9.30;;;;;;;;;;1721989;82;21165;-62
2022/08/12 06:50:10;;;;;;;9.50;7.70;;;;;;;;;;1683952;84;21056;-62
2022/08/12 06:52:37;;;;;;;10.80;9.23;;;;;;;;;;1767065;80;21524;-62
2022/08/12 06:55:06;;;;;;;9.63;8.68;;;;;;;;;;1765766;79;21088;-64
2022/08/12 06:57:32;;;;;;;10.43;8.90;;;;;;;;;;1764866;80;21025;-63
2022/08/12 06:59:58;;;;;;;9.20;7.60;;;;;;;;;;1765327;80;21012;-64
2022/08/12 07:02:24;;;;;;;11.00;8.03;;;;;;;;;;1764262;81;21128;-63
2022/08/12 07:04:51;;;;;;;7.62;6.92;;;;;;;;;;1766932;80;21024;-64
2022/08/12 07:07:17;;;;;;;9.95;8.95;;;;;;;;;;1686466;83;22087;-65
2022/08/12 07:09:43;;;;;;;10.30;8.65;;;;;;;;;;1772142;81;21040;-63
2022/08/12 07:12:17;;;;;;;9.15;8.15;;;;;;;;;;1763663;79;21076;-62
2022/08/12 07:14:40;;;;;;;11.15;10.05;;;;;;;;;;1767517;81;21085;-62
2022/08/12 07:17:06;;;;;;;10.20;9.23;;;;;;;;;;1764396;80;20976;-63
2022/08/12 07:19:33;;;;;;;11.05;8.30;;;;;;;;;;1769105;79;21064;-62
2022/08/12 07:22:05;;;;;;;19.48;10.32;;;;;;;;;;1768987;81;21087;-63
2022/08/12 07:24:27;;;;;;;11.57;8.85;;;;;;;;;;1771756;79;21060;-63
2022/08/12 07:26:54;;;;;;;10.70;9.60;;;;;;;;;;1777750;80;21074;-61
2022/08/12 07:29:21;;;;;;;11.05;9.65;;;;;;;;;;1775789;80;21599;-63
2022/08/12 07:31:48;;;;;;;11.12;8.83;;;;;;;;;;1769932;81;21028;-64
2022/08/12 07:34:14;;;;;;;9.93;8.93;;;;;;;;;;1774373;79;21015;-64
2022/08/12 07:36:40;;;;;;;11.22;9.68;;;;;;;;;;1772947;80;21520;-64
2022/08/12 07:39:06;;;;;;;14.13;9.35;;;;;;;;;;1772556;79;21555;-65
2022/08/12 07:41:32;;;;;;;31.55;28.50;;;;;;;;;;1760630;80;21515;-66
2022/08/12 07:44:05;;;;;;;28.02;21.48;;;;;;;;;;1772014;79;21083;-66
2022/08/12 07:46:44;;;;;;;22.25;18.42;;;;;;;;;;1772675;80;21034;-66
2022/08/12 07:49:12;;;;;;;12.95;10.20;;;;;;;;;;1769470;80;21004;-66
2022/08/12 07:51:39;;;;;;;10.55;9.55;;;;;;;;;;1687633;83;21108;-65
2022/08/12 07:54:09;;;;;;;11.78;10.32;;;;;;;;;;1760388;80;21086;-65
2022/08/12 07:56:36;;;;;;;11.55;9.28;;;;;;;;;;1757458;80;21039;-64
2022/08/12 07:59:03;;;;;;;10.00;8.88;;;;;;;;;;1754743;81;21043;-65
2022/08/12 08:01:29;;;;;;;10.18;9.18;;;;;;;;;;1754585;80;21059;-64
2022/08/12 08:06:44;;;;;;;11.57;10.38;;;;;;;;;;1754505;80;21043;-64
2022/08/12 08:09:12;;;;;;;11.70;9.33;;;;;;;;;;1740585;82;21051;-65
2022/08/12 08:14:28;;;;;;;12.10;10.95;;;;;;;;;;1755248;82;21063;-63
2022/08/12 08:16:52;;;;;;;11.88;10.68;;;;;;;;;;1755945;82;21047;-63
2022/08/12 08:19:22;;;;;;;11.28;10.05;;;;;;;;;;1747546;80;21083;-64
2022/08/12 08:21:46;;;;;;;21.50;16.15;;;;;;;;;;1743842;80;21031;-64
2022/08/12 08:24:15;;;;;;;17.23;11.40;;;;;;;;;;1761042;80;21105;-64
2022/08/12 08:26:41;;;;;;;12.95;9.88;;;;;;;;;;1765206;81;21033;-65
2022/08/12 08:29:08;;;;;;;11.50;10.40;;;;;;;;;;1763839;81;21016;-65
2022/08/12 08:31:34;;;;;;;11.88;10.68;;;;;;;;;;1757322;82;21059;-64
2022/08/12 08:34:01;;;;;;;11.97;10.00;;;;;;;;;;1759829;82;21070;-65
2022/08/12 08:36:28;;;;;;;15.60;9.93;;;;;;;;;;1759900;82;21071;-66
2022/08/12 08:38:55;;;;;;;13.83;11.88;;;;;;;;;;1760392;82;20984;-66
2022/08/12 08:44:05;;;;;;;12.43;11.12;;;;;;;;;;1758533;82;21047;-64
2022/08/12 08:46:36;;;;;;;15.38;11.68;;;;;;;;;;1754404;80;21040;-65
2022/08/12 08:49:02;;;;;;;14.05;10.03;;;;;;;;;;1751588;80;21088;-65
2022/08/12 08:51:28;;;;;;;14.58;10.80;;;;;;;;;;1749352;82;21038;-64
2022/08/12 08:53:54;;;;;;;11.22;9.83;;;;;;;;;;1749730;82;20987;-64
2022/08/12 08:56:21;;;;;;;13.22;10.95;;;;;;;;;;1754263;82;21064;-64
2022/08/12 08:58:48;;;;;;;15.80;10.90;;;;;;;;;;1754705;82;21052;-63
2022/08/12 09:01:19;;;;;;;13.75;9.40;;;;;;;;;;1743468;82;21060;-64
2022/08/12 09:03:43;;;;;;;13.68;10.68;;;;;;;;;;1738411;82;21000;-64
2022/08/12 09:06:09;;;;;;;16.77;11.22;;;;;;;;;;1748999;82;21035;-65
2022/08/12 09:08:35;;;;;;;12.37;11.00;;;;;;;;;;1749145;82;21069;-66
2022/08/12 09:13:26;;;;;;;12.70;9.80;;;;;;;;;;1748077;82;22187;-64
2022/08/12 09:13:33;;;;;;;11.22;9.93;;;;;;;;;;1744762;82;21056;-64
2022/08/12 09:16:01;;;;;;;11.18;10.08;;;;;;;;;;1749109;82;21619;-64
2022/08/12 09:18:29;;;;;;;12.68;10.50;;;;;;;;;;1749131;82;21072;-64
2022/08/12 09:20:56;;;;;;;11.75;10.55;;;;;;;;;;1740050;82;21639;-64
2022/08/12 09:23:22;;;;;;;11.15;9.63;;;;;;;;;;1743915;82;21024;-64
2022/08/12 09:25:48;;;;;;;12.00;10.78;;;;;;;;;;1744063;82;21024;-65
2022/08/12 09:28:14;;;;;;;11.38;10.20;;;;;;;;;;1747011;82;21477;-64
2022/08/12 09:30:48;;;;;;;11.18;10.08;;;;;;;;;;1751679;82;21099;-64
2022/08/12 09:33:14;;;;;;;11.90;9.18;;;;;;;;;;1751781;82;21520;-63
2022/08/12 09:35:43;;;;;;;11.40;9.83;;;;;;;;;;1751448;82;21056;-64
2022/08/12 09:38:11;;;;;;;11.55;10.35;;;;;;;;;;1751571;82;21539;-65
2022/08/12 09:40:39;;;;;;;11.88;10.45;;;;;;;;;;1751275;82;21025;-64
2022/08/12 09:45:50;;;;;;;11.05;9.28;;;;;;;;;;1723710;83;21095;-64
2022/08/12 09:48:18;;;;;;;11.70;10.60;;;;;;;;;;1737132;80;21064;-64
2022/08/12 09:50:46;;;;;;;10.05;9.05;;;;;;;;;;1782546;80;21023;-64
2022/08/12 09:53:14;;;;;;;11.45;10.13;;;;;;;;;;1753775;80;21567;-64
2022/08/12 09:55:41;;;;;;;11.63;9.48;;;;;;;;;;1745381;82;21036;-64
2022/08/12 09:58:07;;;;;;;11.70;10.50;;;;;;;;;;1765854;80;20997;-64
2022/08/12 10:00:34;;;;;;;11.48;10.28;;;;;;;;;;1776490;80;21007;-64
2022/08/12 10:03:02;;;;;;;12.25;9.48;;;;;;;;;;1780733;80;21063;-65
2022/08/12 10:05:35;;;;;;;10.70;8.85;;;;;;;;;;1764039;80;21496;-63
2022/08/12 10:08:01;;;;;;;11.57;10.18;;;;;;;;;;1782874;80;21070;-64
2022/08/12 10:10:27;;;;;;;11.05;9.95;;;;;;;;;;1782493;80;21634;-64
2022/08/12 10:15:43;;;;;;;11.70;10.50;;;;;;;;;;1779143;80;21555;-63
2022/08/12 10:18:10;;;;;;;11.70;9.78;;;;;;;;;;1782487;80;21028;-64
2022/08/12 10:20:37;;;;;;;12.15;9.95;;;;;;;;;;1781260;80;21500;-63
2022/08/12 10:23:05;;;;;;;13.90;11.57;;;;;;;;;;1781157;80;21086;-64
2022/08/12 10:31:01;;;;;;;12.28;11.08;;;;;;;;;;1772848;80;21009;-64
2022/08/12 10:33:29;;;;;;;11.03;9.60;;;;;;;;;;1782436;80;21037;-64
2022/08/12 10:35:57;;;;;;;12.55;11.25;;;;;;;;;;1782487;80;21068;-65
2022/08/12 10:38:23;;;;;;;12.13;10.93;;;;;;;;;;1773157;80;21071;-65
2022/08/12 10:43:43;;;;;;;10.08;8.73;;;;;;;;;;1778040;80;21075;-64
2022/08/12 10:46:17;;;;;;;11.33;10.00;;;;;;;;;;1770053;80;21095;-65
2022/08/12 10:48:46;;;;;;;62.13;55.33;;;;;;;;;;1770831;80;21016;-64
2022/08/12 10:51:13;;;;;;;41.53;36.88;;;;;;;;;;1784749;80;21056;-64
2022/08/12 10:53:42;;;;;;;33.38;28.17;;;;;;;;;;1784463;80;21033;-64
2022/08/12 10:56:10;;;;;;;14.13;11.60;;;;;;;;;;1775867;80;21038;-65
2022/08/12 10:58:37;;;;;;;11.83;10.72;;;;;;;;;;1781736;80;21008;-65
2022/08/12 11:01:05;;;;;;;11.03;9.88;;;;;;;;;;1769655;79;21055;-69
2022/08/12 11:03:36;;;;;;;12.68;10.48;;;;;;;;;;1779588;80;21048;-66
2022/08/12 11:06:01;;;;;;;10.80;9.75;;;;;;;;;;1788640;80;21047;-66
2022/08/12 11:08:28;;;;;;;11.08;9.80;;;;;;;;;;1790865;80;21055;-66
2022/08/12 11:10:54;;;;;;;11.68;10.58;;;;;;;;;;1787859;80;21079;-65
2022/08/12 11:13:20;;;;;;;9.53;8.53;;;;;;;;;;1789069;80;22423;-66
2022/08/12 11:15:46;;;;;;;10.78;9.70;;;;;;;;;;1788310;80;21034;-66
2022/08/12 11:18:13;;;;;;;12.00;10.65;;;;;;;;;;1784255;80;21034;-66
2022/08/12 11:20:39;;;;;;;11.88;10.60;;;;;;;;;;1790788;80;21074;-65
2022/08/12 11:23:07;;;;;;;11.63;10.53;;;;;;;;;;1787726;80;21035;-66
2022/08/12 11:25:34;;;;;;;12.58;10.15;;;;;;;;;;1790467;80;21523;-66
2022/08/12 11:28:00;;;;;;;11.65;10.15;;;;;;;;;;1784676;80;21047;-66
2022/08/12 11:30:26;;;;;;;10.53;9.43;;;;;;;;;;1775722;80;21020;-66
2022/08/12 11:32:53;;;;;;;12.53;11.22;;;;;;;;;;1775208;80;21028;-65
2022/08/12 11:35:21;;;;;;;13.13;11.78;;;;;;;;;;1785210;80;21040;-65
2022/08/12 11:37:47;;;;;;;13.35;12.05;;;;;;;;;;1763361;80;21588;-65
2022/08/12 11:40:13;;;;;;;12.98;10.08;;;;;;;;;;1771913;80;20996;-66
2022/08/12 11:42:39;;;;;;;11.03;9.18;;;;;;;;;;1780841;80;21001;-67
2022/08/12 11:45:07;;;;;;;12.23;10.45;;;;;;;;;;1781194;80;21020;-66
2022/08/12 11:47:34;;;;;;;11.65;10.50;;;;;;;;;;1787018;80;21015;-64
2022/08/12 11:50:02;;;;;;;13.90;10.60;;;;;;;;;;1787602;80;21052;-66
2022/08/12 11:52:28;;;;;;;13.60;11.03;;;;;;;;;;1786659;80;21001;-66
2022/08/12 11:54:55;;;;;;;10.85;8.95;;;;;;;;;;1787009;80;21066;-66
2022/08/12 11:57:20;;;;;;;10.28;9.28;;;;;;;;;;1788224;80;21017;-66
2022/08/12 11:59:46;;;;;;;12.13;10.88;;;;;;;;;;1781739;80;21032;-66
2022/08/12 12:02:13;;;;;;;11.65;10.45;;;;;;;;;;1785033;79;21070;-66
2022/08/12 12:04:39;;;;;;;13.20;9.30;;;;;;;;;;1779925;80;21058;-66
2022/08/12 12:07:05;;;;;;;12.70;9.43;;;;;;;;;;1787004;80;21085;-65
2022/08/12 12:09:32;;;;;;;11.40;10.30;;;;;;;;;;1783304;80;21019;-64
2022/08/12 12:11:59;;;;;;;14.63;10.78;;;;;;;;;;1741406;82;21611;-64
2022/08/12 12:14:26;;;;;;;11.05;9.95;;;;;;;;;;1720813;83;21017;-65
2022/08/12 12:16:54;;;;;;;12.00;9.93;;;;;;;;;;1736977;81;21075;-65
2022/08/12 12:19:20;;;;;;;11.90;10.70;;;;;;;;;;1691071;83;21122;-65
2022/08/12 12:21:48;;;;;;;11.95;10.70;;;;;;;;;;1720955;83;21037;-65
2022/08/12 12:24:17;;;;;;;12.70;10.43;;;;;;;;;;1732445;83;21087;-63
2022/08/12 12:26:43;;;;;;;12.50;9.80;;;;;;;;;;1727685;83;21050;-65
2022/08/12 12:29:09;;;;;;;12.00;9.73;;;;;;;;;;1731635;82;21052;-64
2022/08/12 12:31:36;;;;;;;13.05;11.35;;;;;;;;;;1727908;81;21111;-65
2022/08/12 12:34:02;;;;;;;10.78;9.70;;;;;;;;;;1730085;83;21021;-64
2022/08/12 12:36:29;;;;;;;12.13;11.03;;;;;;;;;;1721908;83;21529;-63
2022/08/12 12:38:56;;;;;;;11.83;10.70;;;;;;;;;;1722241;82;21035;-66
2022/08/12 12:41:22;;;;;;;13.88;11.73;;;;;;;;;;1712999;83;21108;-65
2022/08/12 12:43:48;;;;;;;14.65;10.88;;;;;;;;;;1788173;80;21048;-65
2022/08/12 12:46:16;;;;;;;10.85;9.70;;;;;;;;;;1785546;80;21032;-65
2022/08/12 12:48:44;;;;;;;15.72;14.10;;;;;;;;;;1783197;80;21524;-64
2022/08/12 12:51:17;;;;;;;13.88;11.83;;;;;;;;;;1750606;82;20991;-64
2022/08/12 12:53:43;;;;;;;;;;;;;;;;;;1719225;82;21508;-66
2022/08/12 12:56:14;;;;;;;91.90;72.75;;;;;;;;;;1749377;81;20928;-67
2022/08/12 12:58:42;;;;;;;18.52;15.53;;;;;;;;;;1749618;82;21032;-68
2022/08/12 13:01:12;;;;;;;14.25;12.50;;;;;;;;;;1744481;81;21181;-67
2022/08/12 13:03:39;;;;;;;14.05;11.43;;;;;;;;;;1734538;82;21526;-66
2022/08/12 13:06:07;;;;;;;12.15;10.72;;;;;;;;;;1742397;82;21018;-65
2022/08/12 13:08:34;;;;;;;10.70;9.60;;;;;;;;;;1747076;81;21080;-66
2022/08/12 13:11:02;;;;;;;13.10;11.50;;;;;;;;;;1736099;81;21064;-66
2022/08/12 13:13:30;;;;;;;10.63;9.53;;;;;;;;;;1706057;84;21066;-67
2022/08/12 13:16:00;;;;;;;13.13;11.00;;;;;;;;;;1720166;82;21507;-67
2022/08/12 13:18:35;;;;;;;12.68;9.45;;;;;;;;;;1715383;83;21027;-68
2022/08/12 13:20:57;;;;;;;11.63;10.45;;;;;;;;;;1748708;80;21072;-67
2022/08/12 13:23:25;;;;;;;10.20;9.13;;;;;;;;;;1739569;80;21061;-67
2022/08/12 13:25:52;;;;;;;11.00;9.90;;;;;;;;;;1745667;80;21102;-67
2022/08/12 13:28:22;;;;;;;11.12;10.03;;;;;;;;;;1747638;80;21047;-66
2022/08/12 13:30:49;;;;;;;12.00;9.28;;;;;;;;;;1750572;80;21088;-66
2022/08/12 13:33:15;;;;;;;10.82;9.73;;;;;;;;;;1749267;80;21056;-66
2022/08/12 13:35:44;;;;;;;13.18;10.15;;;;;;;;;;1749595;80;21069;-66
2022/08/12 13:38:12;;;;;;;11.18;10.00;;;;;;;;;;1749774;80;21096;-66
2022/08/12 13:40:39;;;;;;;9.35;8.35;;;;;;;;;;1750495;81;21000;-66
2022/08/12 13:43:05;;;;;;;11.48;9.20;;;;;;;;;;1748432;80;21087;-66
2022/08/12 13:45:34;;;;;;;13.80;11.28;;;;;;;;;;1748420;82;21072;-64
2022/08/12 13:48:01;;;;;;;15.48;13.72;;;;;;;;;;1750646;82;21037;-64
2022/08/12 13:50:31;;;;;;;19.12;12.80;;;;;;;;;;1735769;82;21576;-64
2022/08/12 13:52:59;;;;;;;15.13;9.85;;;;;;;;;;1719861;82;21053;-65
2022/08/12 13:55:25;;;;;;;13.58;10.60;;;;;;;;;;1742365;81;21024;-65
2022/08/12 13:57:52;;;;;;;11.57;10.35;;;;;;;;;;1700129;83;21079;-64
2022/08/12 14:00:19;;;;;;;13.50;10.75;;;;;;;;;;1715027;83;21156;-64
2022/08/12 14:02:45;;;;;;;12.18;9.15;;;;;;;;;;1712728;83;21025;-65
2022/08/12 14:05:12;;;;;;;12.15;9.55;;;;;;;;;;1734265;82;21036;-65
2022/08/12 14:07:58;;;;;;;12.05;10.75;;;;;;;;;;1708854;82;21067;-65
2022/08/12 14:10:49;;;;;;;11.40;10.00;;;;;;;;;;1729705;82;21531;-62
2022/08/12 14:13:15;;;;;;;12.43;10.43;;;;;;;;;;1741703;81;21532;-63
2022/08/12 14:15:43;;;;;;;9.95;8.13;;;;;;;;;;1743776;81;20937;-64
2022/08/12 14:18:13;;;;;;;11.18;10.08;;;;;;;;;;1708820;83;21085;-64
2022/08/12 14:20:40;;;;;;;11.12;10.13;;;;;;;;;;1733357;81;21063;-64
2022/08/12 14:23:07;;;;;;;13.18;10.60;;;;;;;;;;1711796;83;20966;-64
2022/08/12 14:25:33;;;;;;;11.30;9.33;;;;;;;;;;1713104;83;21012;-64
2022/08/12 14:28:10;;;;;;;11.38;9.20;;;;;;;;;;1714287;84;21007;-64
2022/08/12 14:30:33;;;;;;;;;;;;;;;;;;1711868;83;21049;-64
2022/08/12 14:33:02;;;;;;;10.45;9.10;;;;;;;;;;1728684;81;20094;-64
2022/08/12 14:35:27;;;;;;;12.03;10.80;;;;;;;;;;1729114;82;21016;-64
2022/08/12 14:37:53;;;;;;;17.32;15.23;;;;;;;;;;1775421;80;20960;-63
2022/08/12 14:40:21;;;;;;;14.30;11.83;;;;;;;;;;1782625;80;21069;-62
2022/08/12 14:42:47;;;;;;;11.78;9.95;;;;;;;;;;1783406;80;21437;-63
2022/08/12 14:45:13;;;;;;;13.05;10.30;;;;;;;;;;1780730;80;20969;-62
2022/08/12 14:47:41;;;;;;;10.63;9.53;;;;;;;;;;1776206;80;20966;-63
2022/08/12 14:50:07;;;;;;;12.33;11.05;;;;;;;;;;1786288;79;21005;-63
2022/08/12 14:52:34;;;;;;;15.32;9.65;;;;;;;;;;1782073;80;20965;-64
2022/08/12 14:55:01;;;;;;;11.73;10.28;;;;;;;;;;1774677;80;20988;-63
2022/08/12 14:57:28;;;;;;;15.00;10.93;;;;;;;;;;1774779;80;21084;-63
2022/08/12 15:02:38;;;;;;;13.15;10.45;;;;;;;;;;1774137;80;21036;-65
2022/08/12 15:05:05;;;;;;;12.25;10.78;;;;;;;;;;1775591;80;21008;-65
2022/08/12 15:07:31;;;;;;;14.05;10.28;;;;;;;;;;1768057;80;21063;-65
2022/08/12 15:09:57;;;;;;;13.53;11.73;;;;;;;;;;1780703;80;20985;-65
2022/08/12 15:12:23;;;;;;;13.08;10.23;;;;;;;;;;1777892;80;21009;-67
2022/08/12 15:14:52;;;;;;;12.90;9.35;;;;;;;;;;1773306;80;21031;-67
2022/08/12 15:17:18;;;;;;;10.50;9.28;;;;;;;;;;1774586;80;21068;-66
2022/08/12 15:19:44;;;;;;;11.65;10.45;;;;;;;;;;1768205;80;21012;-66
2022/08/12 15:22:10;;;;;;;10.95;9.68;;;;;;;;;;1786617;80;21032;-63
2022/08/12 15:24:36;;;;;;;12.58;10.70;;;;;;;;;;1770253;80;21088;-63
2022/08/12 15:27:03;;;;;;;12.53;10.70;;;;;;;;;;1762268;80;21080;-66
2022/08/12 15:29:29;;;;;;;12.98;9.70;;;;;;;;;;1767128;80;21035;-63
2022/08/12 15:31:56;;;;;;;16.30;14.63;;;;;;;;;;1768784;80;21056;-63
2022/08/12 15:34:23;;;;;;;18.42;15.20;;;;;;;;;;1781476;80;20957;-62
2022/08/12 15:36:49;;;;;;;12.95;10.45;;;;;;;;;;1780964;80;21059;-65
2022/08/12 15:39:15;;;;;;;12.73;11.48;;;;;;;;;;1770854;80;21024;-67
2022/08/12 15:41:44;;;;;;;14.03;10.08;;;;;;;;;;1773971;80;21083;-65
2022/08/12 15:44:10;;;;;;;14.95;10.45;;;;;;;;;;1763792;80;20976;-65
2022/08/12 15:46:36;;;;;;;12.13;10.55;;;;;;;;;;1770558;80;21060;-65
2022/08/12 15:49:03;;;;;;;13.18;11.55;;;;;;;;;;1758739;80;21111;-62
2022/08/12 15:51:33;;;;;;;11.63;10.18;;;;;;;;;;1774023;80;21032;-63
2022/08/12 15:54:04;;;;;;;10.65;9.35;;;;;;;;;;1766700;80;21000;-62
2022/08/12 15:56:32;;;;;;;13.80;11.53;;;;;;;;;;1775705;80;21000;-62
2022/08/12 15:58:58;;;;;;;12.13;10.18;;;;;;;;;;1757633;80;21084;-62
2022/08/12 16:03:48;;;;;;;12.43;11.00;;;;;;;;;;1803249;78;22477;-63
2022/08/12 16:06:15;;;;;;;12.63;11.35;;;;;;;;;;1762425;80;21057;-63
2022/08/12 16:08:42;;;;;;;11.80;10.60;;;;;;;;;;1790789;80;21012;-63
2022/08/12 16:11:11;;;;;;;15.48;11.70;;;;;;;;;;1783543;80;21529;-63
2022/08/12 16:13:37;;;;;;;13.43;11.40;;;;;;;;;;1787229;80;20980;-62
2022/08/12 16:16:04;;;;;;;13.60;12.13;;;;;;;;;;1786744;80;21040;-63
2022/08/12 16:18:34;;;;;;;15.32;13.65;;;;;;;;;;1783264;80;21028;-63
2022/08/12 16:21:01;;;;;;;13.78;11.85;;;;;;;;;;1785489;80;21542;-61